Weather History for Nebraska City, NE

Change the Weather History Date:

Tuesday, October 2, 2012

  Actual Average (KSDA) Record (KSDA)
Temperature  
Mean Temperature 59 °F -  
Max Temperature 74 °F 76 °F 138 °F (1997)
Min Temperature 44 °F 47 °F 26 °F (2004)
Degree Days  
Heating Degree Days 6    
Growing Degree Days 9 (Base 50)    
Moisture  
Dew Point 36 °F    
Average Humidity 43    
Maximum Humidity 67    
Minimum Humidity 24    
Precipitation  
Precipitation 0.00 in - - ()
Sea Level Pressure  
Sea Level Pressure 29.94 in    
Wind  
Wind Speed 6 mph (NW)    
Max Wind Speed 10 mph    
Max Gust Speed -    
Visibility 10 miles    
Events      
Averages and records for this station are not official NWS values.
T = Trace of Precipitation, MM = Missing Value Source: NWS Daily Summary

Daily Weather History Graph

Daily Weather History Graph

Search for Another Location

Airport:

Trip Planner

Search our weather history database for the weather conditions in past years. The results will help you decide how hot, cold, wet, or windy it might be!

Date:

Astronomy

Oct. 02, 2012 Rise Set
Actual Time 7:21 AM CDT 7:03 PM CDT
Civil Twilight 6:54 AM CDT 7:30 PM CDT
Nautical Twilight 6:22 AM CDT 8:01 PM CDT
Astronomical Twilight 5:50 AM CDT 8:33 PM CDT
Moon 8:15 PM CDT (10/2) 9:50 AM CDT (10/2)
Length of Visible Light 12h 36m
Length of Day
11h 41m
Waning Gibbous, 94% of the Moon is Illuminated
Oct 2
Waning Gibbous
Oct 8
Last Quarter
Oct 15
New
Oct 21
First Quarter
Oct 29
Full

Hourly Weather History & Observations

Time (CDT) Temp. Windchill Dew Point Humidity Pressure Visibility Wind Dir Wind Speed Gust Speed Precip Events Conditions
12:15 AM 54.3 °F - 41.0 °F 61% 29.97 in 10.0 mi NNW 9.2 mph - N/A   Clear
12:35 AM 53.6 °F - 40.5 °F 61% 29.97 in 10.0 mi NNW 10.4 mph - N/A   Clear
1:35 AM 52.7 °F - 39.2 °F 60% 29.98 in 10.0 mi NNW 9.2 mph - N/A   Clear
1:55 AM 52.0 °F - 38.7 °F 60% 29.98 in 10.0 mi NNW 10.4 mph - N/A   Clear
2:15 AM 51.6 °F - 38.3 °F 60% 29.98 in 10.0 mi NNW 10.4 mph - N/A   Clear
2:35 AM 51.1 °F - 37.8 °F 60% 29.98 in 10.0 mi NNW 9.2 mph - N/A   Clear
2:55 AM 50.9 °F - 37.2 °F 59% 29.98 in 10.0 mi NNW 10.4 mph - N/A   Clear
3:15 AM 50.7 °F - 36.7 °F 59% 29.98 in 10.0 mi NNW 10.4 mph - N/A   Clear
3:35 AM 50.2 °F - 36.3 °F 59% 29.97 in 10.0 mi NNW 9.2 mph - N/A   Clear
3:55 AM 50.0 °F - 35.8 °F 58% 29.97 in 10.0 mi NNW 8.1 mph - N/A   Clear
4:15 AM 49.1 °F - 36.0 °F 61% 29.97 in 10.0 mi North 5.8 mph - N/A   Clear
4:35 AM 48.2 °F - 36.0 °F 63% 29.97 in 10.0 mi North 5.8 mph - N/A   Clear
4:55 AM 48.2 °F - 35.8 °F 62% 29.97 in 10.0 mi NNW 5.8 mph - N/A   Clear
5:15 AM 47.5 °F - 35.6 °F 63% 29.97 in 10.0 mi NNW 5.8 mph - N/A   Clear
5:35 AM 47.3 °F - 35.2 °F 63% 29.97 in 10.0 mi NNW 6.9 mph - N/A   Clear
6:15 AM 47.5 °F - 34.9 °F 62% 29.98 in 10.0 mi NNW 6.9 mph - N/A   Clear
6:35 AM 47.5 °F - 34.7 °F 61% 29.98 in 10.0 mi North 8.1 mph - N/A   Clear
6:55 AM 46.4 °F 42.4 °F 34.7 °F 64% 29.98 in 10.0 mi NNW 8.1 mph - N/A   Clear
7:15 AM 45.7 °F 42.7 °F 34.7 °F 65% 29.98 in 10.0 mi North 5.8 mph - N/A   Clear
7:35 AM 44.6 °F 41.4 °F 34.3 °F 67% 29.98 in 10.0 mi NNW 5.8 mph - N/A   Clear
7:55 AM 45.7 °F 42.7 °F 34.9 °F 66% 29.99 in 10.0 mi NNW 5.8 mph - N/A   Clear
8:15 AM 48.0 °F - 35.2 °F 61% 29.99 in 10.0 mi North 3.5 mph - N/A   Clear
8:35 AM 49.8 °F - 35.2 °F 57% 29.99 in 10.0 mi North 5.8 mph - N/A   Clear
8:55 AM 51.4 °F - 35.6 °F 55% 29.99 in 10.0 mi Calm Calm - N/A   Clear
9:15 AM 52.9 °F - 36.0 °F 53% 29.99 in 10.0 mi Calm Calm - N/A   Clear
9:35 AM 54.3 °F - 36.7 °F 51% 29.99 in 10.0 mi North 5.8 mph - N/A   Clear
9:55 AM 56.5 °F - 37.2 °F 49% 29.99 in 10.0 mi Calm Calm - N/A   Clear
10:15 AM 58.5 °F - 37.6 °F 46% 29.99 in 10.0 mi Calm Calm - N/A   Clear
10:35 AM 60.8 °F - 38.5 °F 44% 29.99 in 10.0 mi Calm Calm - N/A   Clear
10:55 AM 63.0 °F - 39.6 °F 42% 30.00 in 10.0 mi Calm Calm - N/A   Clear
11:15 AM 63.7 °F - 39.4 °F 41% 29.99 in 10.0 mi Calm Calm - N/A   Clear
11:35 AM 66.2 °F - 40.1 °F 38% 29.99 in 10.0 mi Calm Calm - N/A   Clear
11:55 AM 67.3 °F - 40.3 °F 37% 29.99 in 10.0 mi NW 4.6 mph - N/A   Clear
12:15 PM 67.6 °F - 39.4 °F 36% 29.97 in 10.0 mi Calm Calm - N/A   Clear
12:35 PM 69.1 °F - 39.4 °F 34% 29.97 in 10.0 mi Calm Calm - N/A   Clear
12:55 PM 69.3 °F - 38.8 °F 33% 29.96 in 10.0 mi Calm Calm - N/A   Clear
1:15 PM 70.7 °F - 38.7 °F 31% 29.95 in 10.0 mi North 3.5 mph - N/A   Clear
1:35 PM 70.7 °F - 38.1 °F 30% 29.94 in 10.0 mi West 6.9 mph - N/A   Clear
1:55 PM 71.2 °F - 38.1 °F 30% 29.93 in 10.0 mi WNW 6.9 mph - N/A   Clear
2:15 PM 72.1 °F - 36.7 °F 27% 29.92 in 10.0 mi Calm Calm - N/A   Clear
2:35 PM 72.0 °F - 36.3 °F 27% 29.91 in 10.0 mi Calm Calm - N/A   Clear
2:55 PM 73.0 °F - 36.9 °F 27% 29.90 in 10.0 mi West 6.9 mph - N/A   Clear
3:15 PM 72.1 °F - 36.3 °F 27% 29.89 in 10.0 mi Calm Calm - N/A   Clear
3:35 PM 73.6 °F - 36.3 °F 26% 29.89 in 10.0 mi Calm Calm - N/A   Clear
3:55 PM 73.4 °F - 35.8 °F 25% 29.89 in 10.0 mi Calm Calm - N/A   Clear
4:15 PM 74.3 °F - 36.5 °F 25% 29.88 in 10.0 mi NNW 3.5 mph - N/A   Clear
4:35 PM 73.6 °F - 35.1 °F 25% 29.88 in 10.0 mi SSW 4.6 mph - N/A   Clear
4:55 PM 73.6 °F - 34.5 °F 24% 29.87 in 10.0 mi Calm Calm - N/A   Clear
5:15 PM 73.4 °F - 34.0 °F 24% 29.87 in 10.0 mi Calm Calm - N/A   Clear
5:35 PM 73.0 °F - 33.8 °F 24% 29.87 in 10.0 mi SW 5.8 mph - N/A   Clear
5:55 PM 72.5 °F - 33.3 °F 24% 29.87 in 10.0 mi Calm Calm - N/A   Clear
6:15 PM 71.2 °F - 34.5 °F 26% 29.87 in 10.0 mi Calm Calm - N/A   Clear
6:35 PM 70.7 °F - 34.2 °F 26% 29.88 in 10.0 mi Calm Calm - N/A   Clear
6:55 PM 69.1 °F - 33.3 °F 27% 29.88 in 10.0 mi Calm Calm - N/A   Clear
7:15 PM 68.4 °F - 32.5 °F 27% 29.88 in 10.0 mi Calm Calm - N/A   Clear
7:35 PM 68.2 °F - 32.0 °F 26% 29.88 in 10.0 mi Calm Calm - N/A   Clear
7:55 PM 67.1 °F - 32.0 °F 27% 29.88 in 10.0 mi Calm Calm - N/A   Clear
8:15 PM 64.9 °F - 32.7 °F 30% 29.89 in 10.0 mi Calm Calm - N/A   Clear
8:35 PM 65.5 °F - 32.0 °F 29% 29.89 in 10.0 mi Calm Calm - N/A   Clear
8:55 PM 63.9 °F - 32.0 °F 30% 29.89 in 10.0 mi Calm Calm - N/A   Clear
9:15 PM 60.4 °F - 33.1 °F 36% 29.89 in 10.0 mi Calm Calm - N/A   Clear
9:35 PM 59.7 °F - 32.9 °F 36% 29.89 in 10.0 mi South 4.6 mph - N/A   Clear
9:55 PM 59.4 °F - 32.4 °F 36% 29.89 in 10.0 mi South 5.8 mph - N/A   Clear
10:15 PM 59.2 °F - 32.2 °F 36% 29.90 in 10.0 mi SSW 3.5 mph - N/A   Clear
10:35 PM 59.0 °F - 32.4 °F 37% 29.90 in 10.0 mi South 5.8 mph - N/A   Clear
10:55 PM 57.6 °F - 32.9 °F 39% 29.90 in 10.0 mi South 4.6 mph - N/A   Clear
11:15 PM 56.7 °F - 32.7 °F 40% 29.90 in 10.0 mi South 5.8 mph - N/A   Clear
11:35 PM 53.4 °F - 34.3 °F 48% 29.90 in 10.0 mi South 5.8 mph - N/A   Clear
11:55 PM 53.4 °F - 35.1 °F 50% 29.90 in 10.0 mi SSW 5.8 mph - N/A   Clear